Nearby METAR Reports

 

EGGP - Liverpool Airpor, United Kingdom
Distance from station: ESE 7mi, 11km
Updated: 28/01/2022 02:20
Overcast
Overcast
 Wind from W
Wind: W 6 mph , 9 km/h
Temperature: 5°C
Wind Chill: 3°C
Dew Point: 4°C
Humidity: 93%
Barometer: 1034 hPa
Clouds: Overcast
Visibility: 6 miles , 10 km
Cloud details: Mostly cloudy 914 m
Overcast 1067 m
2022/01/28 02:20 EGGP 280220Z AUTO 26005KT 9999 BKN030/// OVC035/// 05/04 Q1034
EGNR - Hawarden (aut), United Kingdom
Distance from station: S 13mi, 20km
Updated: 27/01/2022 19:20
NOT Current
Few Clouds
Few Clouds
 Wind from WNW
Wind: WNW 5 mph , 7 km/h
Temperature: 8°C
Wind Chill: 7°C
Dew Point: 5°C
Humidity: 82%
Barometer: 1032 hPa
Clouds: Few Clouds
Visibility: 6 miles , 10 km
Cloud details: Few Clouds 366 m
2022/01/27 19:20 EGNR 271920Z 30004KT 240V350 9999 FEW012 08/05 Q1032
EGOW - Woodvale Raf, United Kingdom
Distance from station: N 16mi, 26km
Updated: 27/01/2022 14:50
NOT Current
Few Clouds
Few Clouds
 Wind from WNW
Wind: WNW 20 mph , 31 km/h
Temperature: 9°C
Wind Chill: 5°C
Dew Point: 5°C
Humidity: 76%
Barometer: 1029 hPa
Clouds: Few Clouds
Visibility: 6 miles , 10 km
Cloud details: Few Clouds 914 m
2022/01/27 14:50 EGOW 271450Z 30017KT 9999 FEW030 09/05 Q1029 RMK BLU
 
EGNO - Wharton, United Kingdom
Distance from station: N 28mi, 45km
Updated: 27/01/2022 18:50
NOT Current
Few Clouds
Few Clouds
 Wind from WSW
Wind: WSW 6 mph , 9 km/h
Temperature: 8°C
Wind Chill: 6°C
Dew Point: 5°C
Humidity: 82%
Barometer: 1031 hPa
Clouds: Few Clouds
Visibility: 6 miles , 10 km
Cloud details: Few Clouds 823 m
2022/01/27 18:50 EGNO 271850Z 25005KT 200V310 9999 FEW027 08/05 Q1031
EGNH - Blackpool Airpor, United Kingdom
Distance from station: N 29mi, 47km
Updated: 27/01/2022 19:50
NOT Current
Partly cloudy
Partly cloudy
 Wind from WNW
Wind: WNW 13 mph , 20 km/h
Temperature: 8°C
Wind Chill: 4°C
Dew Point: 6°C
Humidity: 87%
Barometer: 1031 hPa
Clouds: Partly cloudy
Visibility: 6 miles , 10 km
Cloud details: Partly cloudy 914 m
2022/01/27 19:50 EGNH 271950Z 30011KT 9999 SCT030 08/06 Q1031
EGCC - Manchester Intl, United Kingdom
Distance from station: E 31mi, 49km
Updated: 28/01/2022 02:20
Fog
Fog
 Wind from S
Wind: S 5 mph , 7 km/h
Temperature: 3°C
Wind Chill: 1°C
Dew Point: 3°C
Humidity: 100%
Barometer: 1034 hPa
Summary: Fog
Visibility: 0 mile , 0 km
2022/01/28 02:20 EGCC 280220Z AUTO 17004KT 0200 R23R/0400N FG VV/// 03/03 Q1034 TEMPO 4000 BR
 
EGOS - Shawbury Raf, United Kingdom
Distance from station: SSE 40mi, 65km
Updated: 28/01/2022 01:50
Few Clouds
Few Clouds
 Wind from W
Wind: W 8 mph , 13 km/h
Temperature: 2°C
Wind Chill: -1°C
Dew Point: 1°C
Humidity: 93%
Barometer: 1034 hPa
Clouds: Few Clouds
Visibility: 6 miles , 10 km
Cloud details: Few Clouds 6706 m
2022/01/28 01:50 EGOS 280150Z AUTO 26007KT 9999 FEW220/// 02/01 Q1034